createdAt,value
2023-01-09T00:01:58.098Z,98892.25
2023-01-09T00:04:29.414Z,98883.31
2023-01-09T00:07:00.737Z,98865.75
2023-01-09T00:09:32.096Z,98880.41
2023-01-09T00:12:03.684Z,98875.16
2023-01-09T00:14:34.973Z,98872.47
2023-01-09T00:17:06.276Z,98822.44
2023-01-09T00:19:37.582Z,98877.81
2023-01-09T00:22:09.624Z,98872.44
2023-01-09T00:24:40.935Z,98825.78
2023-01-09T00:27:14.198Z,98868.94
2023-01-09T00:29:46.528Z,98866.38
2023-01-09T00:32:17.829Z,98846.50
2023-01-09T00:34:49.115Z,98868.03
2023-01-09T00:37:20.481Z,98853.16
2023-01-09T00:39:51.773Z,98866.31
2023-01-09T00:42:26.551Z,98841.06
2023-01-09T00:45:02.372Z,98850.59
2023-01-09T00:47:39.782Z,98848.06
2023-01-09T00:50:16.415Z,98835.78
2023-01-09T00:52:48.170Z,98828.00
2023-01-09T00:55:19.647Z,98820.19
2023-01-09T00:57:50.967Z,98837.38
2023-01-09T01:00:22.325Z,98824.47
2023-01-09T01:02:53.711Z,98836.47
2023-01-09T01:05:43.652Z,98814.13
2023-01-09T01:08:16.854Z,98838.34
2023-01-09T01:10:48.185Z,98834.91
2023-01-09T01:13:19.791Z,98825.38
2023-01-09T01:15:51.213Z,98829.66
2023-01-09T01:18:22.475Z,98832.16
2023-01-09T01:20:53.814Z,98810.41
2023-01-09T01:23:25.456Z,98834.44
2023-01-09T01:25:56.727Z,98823.72
2023-01-09T01:28:27.985Z,98820.19
2023-01-09T01:30:59.832Z,98820.75
2023-01-09T01:33:32.111Z,98819.66
2023-01-09T01:36:06.850Z,98819.50
2023-01-09T01:38:38.139Z,98818.44
2023-01-09T01:41:09.667Z,98811.09
2023-01-09T01:43:52.711Z,98808.94
2023-01-09T01:46:24.104Z,98806.84
2023-01-09T01:49:06.118Z,98793.50
2023-01-09T01:51:41.603Z,98776.84
2023-01-09T01:54:17.933Z,98792.91
2023-01-09T01:56:53.507Z,98792.78
2023-01-09T01:59:38.355Z,98791.81
2023-01-09T02:02:10.440Z,98793.44
2023-01-09T02:04:42.732Z,98782.09
2023-01-09T02:07:14.117Z,98781.13
2023-01-09T02:09:46.129Z,98778.47
2023-01-09T02:12:24.988Z,98787.25
2023-01-09T02:15:07.946Z,98750.75
2023-01-09T02:18:23.394Z,98773.25
2023-01-09T02:21:08.590Z,98772.25
2023-01-09T02:24:08.668Z,98773.88
2023-01-09T02:27:03.602Z,98755.56
2023-01-09T02:29:47.586Z,98772.88
2023-01-09T02:32:35.209Z,98769.22
2023-01-09T02:35:20.821Z,98773.47
2023-01-09T02:38:23.369Z,98775.09
2023-01-09T02:41:02.479Z,98750.00
2023-01-09T02:43:33.861Z,98749.91
2023-01-09T02:46:05.338Z,98751.47
2023-01-09T02:48:36.840Z,98761.59
2023-01-09T02:51:20.072Z,98764.13
2023-01-09T02:54:20.349Z,98762.19
2023-01-09T02:57:21.838Z,98756.97
2023-01-09T03:00:10.517Z,98760.25
2023-01-09T03:02:57.658Z,98756.72
2023-01-09T03:05:37.473Z,98761.97
2023-01-09T03:08:20.874Z,98749.88
2023-01-09T03:11:04.681Z,98751.47
2023-01-09T03:13:54.632Z,98762.78
2023-01-09T03:16:35.288Z,98739.31
2023-01-09T03:19:12.902Z,98758.38
2023-01-09T03:21:45.008Z,98760.03
2023-01-09T03:24:17.483Z,98757.34
2023-01-09T03:26:48.746Z,98746.22
2023-01-09T03:29:20.088Z,98769.56
2023-01-09T03:31:51.524Z,98759.88
2023-01-09T03:34:22.847Z,98759.72
2023-01-09T03:36:54.172Z,98764.94
2023-01-09T03:39:25.491Z,98758.75
2023-01-09T03:41:56.826Z,98757.84
2023-01-09T03:44:28.129Z,98756.06
2023-01-09T03:46:59.399Z,98755.09
2023-01-09T03:49:30.663Z,98755.06
2023-01-09T03:52:01.942Z,98754.16
2023-01-09T03:54:33.232Z,98753.28
2023-01-09T03:57:04.520Z,98753.28
2023-01-09T03:59:35.884Z,98748.88
2023-01-09T04:02:07.399Z,98749.72
2023-01-09T04:04:38.865Z,98742.63
2023-01-09T04:07:10.194Z,98735.63
2023-01-09T04:09:41.462Z,98737.34
2023-01-09T04:12:14.197Z,98719.34
2023-01-09T04:14:45.467Z,98717.50
2023-01-09T04:17:16.749Z,98721.88
2023-01-09T04:19:48.299Z,98726.03
2023-01-09T04:22:19.566Z,98739.13
2023-01-09T04:24:51.024Z,98738.25
2023-01-09T04:27:22.445Z,98722.44
2023-01-09T04:29:53.752Z,98721.75
2023-01-09T04:32:27.480Z,98725.97
2023-01-09T04:34:58.759Z,98723.44
2023-01-09T04:37:30.084Z,98732.19
2023-01-09T04:40:01.517Z,98730.44
2023-01-09T04:42:32.792Z,98725.31
2023-01-09T04:45:05.493Z,98725.19
2023-01-09T04:47:36.909Z,98718.38
2023-01-09T04:50:13.589Z,98719.13
2023-01-09T04:52:44.919Z,98720.03
2023-01-09T04:55:16.242Z,98716.00
2023-01-09T04:57:47.647Z,98715.03
2023-01-09T05:00:19.119Z,98702.94
2023-01-09T05:02:50.388Z,98705.56
2023-01-09T05:05:21.667Z,98712.41
2023-01-09T05:07:52.983Z,98684.00
2023-01-09T05:10:25.296Z,98708.97
2023-01-09T05:12:56.684Z,98717.56
2023-01-09T05:15:28.247Z,98722.75
2023-01-09T05:17:59.565Z,98734.16
2023-01-09T05:20:30.840Z,98734.09
2023-01-09T05:23:02.123Z,98735.88
2023-01-09T05:25:33.395Z,98714.28
2023-01-09T05:28:04.798Z,98705.56
2023-01-09T05:30:36.095Z,98732.66
2023-01-09T05:33:07.868Z,98730.81
2023-01-09T05:35:39.173Z,98724.84
2023-01-09T05:38:11.506Z,98742.91
2023-01-09T05:40:42.830Z,98746.34
2023-01-09T05:43:15.143Z,98743.69
2023-01-09T05:45:46.478Z,98745.56
2023-01-09T05:48:17.858Z,98739.66
2023-01-09T05:50:49.196Z,98748.16
2023-01-09T05:53:20.473Z,98743.91
2023-01-09T05:55:51.744Z,98749.84
2023-01-09T05:58:23.028Z,98755.09
2023-01-09T06:00:54.401Z,98730.22
2023-01-09T06:03:25.865Z,98741.47
2023-01-09T06:05:57.126Z,98751.91
2023-01-09T06:08:28.409Z,98761.44
2023-01-09T06:10:59.674Z,98759.72
2023-01-09T06:13:31.182Z,98766.66
2023-01-09T06:16:02.572Z,98767.75
2023-01-09T06:18:33.967Z,98781.75
2023-01-09T06:21:05.485Z,98773.13
2023-01-09T06:23:36.755Z,98773.22
2023-01-09T06:26:08.021Z,98779.59
2023-01-09T06:28:39.424Z,98756.44
2023-01-09T06:31:10.843Z,98773.47
2023-01-09T06:33:42.151Z,98785.84
2023-01-09T06:36:13.704Z,98773.16
2023-01-09T06:38:44.969Z,98777.69
2023-01-09T06:41:16.243Z,98795.06
2023-01-09T06:43:47.556Z,98790.19
2023-01-09T06:46:18.866Z,98802.16
2023-01-09T06:48:50.202Z,98796.16
2023-01-09T06:51:21.479Z,98803.72
2023-01-09T06:53:52.756Z,98795.88
2023-01-09T06:56:24.036Z,98812.53
2023-01-09T06:58:55.786Z,98811.59
2023-01-09T07:01:27.179Z,98786.44
2023-01-09T07:03:58.571Z,98806.00
2023-01-09T07:06:29.942Z,98816.34
2023-01-09T07:09:01.327Z,98814.75
2023-01-09T07:11:32.875Z,98826.16
2023-01-09T07:14:04.260Z,98842.97
2023-01-09T07:16:35.554Z,98831.66
2023-01-09T07:19:06.846Z,98815.22
2023-01-09T07:21:38.156Z,98841.97
2023-01-09T07:24:09.426Z,98839.38
2023-01-09T07:26:43.198Z,98848.75
2023-01-09T07:29:14.607Z,98850.53
2023-01-09T07:31:45.899Z,98831.63
2023-01-09T07:34:17.364Z,98851.88
2023-01-09T07:36:50.578Z,98874.47
2023-01-09T07:39:21.941Z,98880.59
2023-01-09T07:41:53.214Z,98888.47
2023-01-09T07:44:24.567Z,98880.75
2023-01-09T07:46:55.830Z,98891.28
2023-01-09T07:49:27.312Z,98884.44
2023-01-09T07:51:58.855Z,98886.00
2023-01-09T07:54:30.395Z,98893.06
2023-01-09T07:57:01.775Z,98898.34
2023-01-09T07:59:33.055Z,98888.88
2023-01-09T08:02:05.609Z,98909.88
2023-01-09T08:04:36.973Z,98918.66
2023-01-09T08:07:08.241Z,98920.38
2023-01-09T08:09:39.509Z,98912.56
2023-01-09T08:12:10.784Z,98932.28
2023-01-09T08:14:42.141Z,98934.81
2023-01-09T08:17:13.613Z,98920.09
2023-01-09T08:19:44.873Z,98934.81
2023-01-09T08:22:16.234Z,98941.09
2023-01-09T08:24:47.487Z,98936.69
2023-01-09T08:27:18.926Z,98944.69
2023-01-09T08:29:50.187Z,98945.66
2023-01-09T08:32:21.472Z,98925.84
2023-01-09T08:34:52.788Z,98943.19
2023-01-09T08:37:24.075Z,98951.81
2023-01-09T08:39:56.375Z,98937.69
2023-01-09T08:42:46.181Z,98948.81
2023-01-09T08:45:36.287Z,98935.81
2023-01-09T08:48:07.572Z,98960.19
2023-01-09T08:50:38.827Z,98950.63
2023-01-09T08:53:11.005Z,98953.38
2023-01-09T08:55:42.902Z,98960.56
2023-01-09T08:58:14.311Z,98974.84
2023-01-09T09:00:45.602Z,98965.09
2023-01-09T09:03:17.498Z,98975.47
2023-01-09T09:05:48.744Z,98981.38
2023-01-09T09:08:20.359Z,98974.91
2023-01-09T09:10:51.648Z,98952.34
2023-01-09T09:13:22.923Z,98979.16
2023-01-09T09:15:54.218Z,98982.63
2023-01-09T09:18:25.645Z,98987.75
2023-01-09T09:20:56.917Z,98988.56
2023-01-09T09:23:28.185Z,98990.34
2023-01-09T09:25:59.432Z,98998.34
2023-01-09T09:28:30.699Z,98998.44
2023-01-09T09:31:05.472Z,98998.44
2023-01-09T09:33:36.768Z,99002.81
2023-01-09T09:36:08.196Z,98998.34
2023-01-09T09:38:39.473Z,99007.94
2023-01-09T09:42:05.692Z,99013.13
2023-01-09T09:44:53.430Z,99005.06
2023-01-09T09:47:49.471Z,99012.88
2023-01-09T09:50:32.246Z,99017.34
2023-01-09T09:53:12.066Z,99014.66
2023-01-09T09:55:46.476Z,99017.94
2023-01-09T09:58:35.697Z,99016.06
2023-01-09T10:01:08.252Z,99023.78
2023-01-09T10:03:55.453Z,99023.84
2023-01-09T10:06:28.536Z,99032.72
2023-01-09T10:09:12.032Z,99031.03
2023-01-09T10:11:55.392Z,99018.91
2023-01-09T10:14:27.184Z,99031.41
2023-01-09T10:17:21.480Z,99032.31
2023-01-09T10:20:03.314Z,99032.03
2023-01-09T10:22:58.285Z,99032.41
2023-01-09T10:25:48.263Z,99030.25
2023-01-09T10:28:26.923Z,99032.44
2023-01-09T10:31:05.161Z,99026.75
2023-01-09T10:34:04.209Z,99015.97
2023-01-09T10:36:59.844Z,99028.81
2023-01-09T10:40:09.549Z,99024.72
2023-01-09T10:42:47.298Z,99028.41
2023-01-09T10:45:35.779Z,99006.59
2023-01-09T10:48:33.658Z,99036.25
2023-01-09T10:51:17.573Z,99030.97
2023-01-09T10:53:51.758Z,99034.91
2023-01-09T10:56:26.428Z,99037.91
2023-01-09T10:58:58.037Z,99037.13
2023-01-09T11:01:33.276Z,99011.03
2023-01-09T11:04:32.265Z,99037.19
2023-01-09T11:07:15.685Z,99029.22
2023-01-09T11:10:02.170Z,99029.78
2023-01-09T11:12:35.130Z,99024.78
2023-01-09T11:15:15.499Z,99027.91
2023-01-09T11:17:47.637Z,99022.44
2023-01-09T11:20:28.407Z,99028.25
2023-01-09T11:22:59.733Z,99034.25
2023-01-09T11:25:31.249Z,99024.47
2023-01-09T11:28:02.477Z,99028.63
2023-01-09T11:30:51.015Z,99020.44
2023-01-09T11:33:27.846Z,99025.38
2023-01-09T11:36:15.605Z,99022.50
2023-01-09T11:38:49.629Z,99032.19
2023-01-09T11:41:24.033Z,99034.13
2023-01-09T11:43:58.288Z,99022.75
2023-01-09T11:46:34.001Z,99015.16
2023-01-09T11:49:19.760Z,99023.31
2023-01-09T11:52:12.549Z,99000.09
2023-01-09T11:55:04.201Z,99034.88
2023-01-09T11:57:35.577Z,99036.72
2023-01-09T12:00:41.849Z,99034.19
2023-01-09T12:03:43.355Z,98992.03
2023-01-09T12:06:42.275Z,99024.69
2023-01-09T12:09:43.530Z,99037.91
2023-01-09T12:12:38.214Z,99035.09
2023-01-09T12:15:40.683Z,99046.91
2023-01-09T12:18:29.221Z,99036.16
2023-01-09T12:21:17.934Z,99035.47
2023-01-09T12:24:02.301Z,99040.16
2023-01-09T12:26:42.196Z,99038.50
2023-01-09T12:29:38.131Z,99030.56
2023-01-09T12:32:26.232Z,99040.22
2023-01-09T12:35:30.814Z,99014.69
2023-01-09T12:38:37.723Z,99032.53
2023-01-09T12:41:50.876Z,99032.34
2023-01-09T12:44:37.686Z,99040.06
2023-01-09T12:47:47.920Z,99027.63
2023-01-09T12:50:43.847Z,99023.19
2023-01-09T12:53:25.711Z,99015.16
2023-01-09T12:56:03.762Z,99023.81
2023-01-09T12:58:47.036Z,99030.09
2023-01-09T13:01:24.410Z,99017.34
2023-01-09T13:04:08.504Z,99032.41
2023-01-09T13:06:45.373Z,99043.34
2023-01-09T13:09:26.416Z,99044.53
2023-01-09T13:12:08.835Z,99024.97
2023-01-09T13:15:04.039Z,99039.81
2023-01-09T13:17:42.409Z,99030.66
2023-01-09T13:20:32.535Z,99031.63
2023-01-09T13:23:05.762Z,99045.50
2023-01-09T13:25:52.019Z,99035.13
2023-01-09T13:28:36.275Z,99049.97
2023-01-09T13:31:25.790Z,99044.78
2023-01-09T13:33:58.991Z,99044.78
2023-01-09T13:36:33.595Z,99052.66
2023-01-09T13:39:06.285Z,99043.88
2023-01-09T13:42:06.539Z,99043.78
2023-01-09T13:44:37.997Z,99053.59
2023-01-09T13:47:27.893Z,99050.84
2023-01-09T13:50:11.380Z,99057.09
2023-01-09T13:52:43.685Z,99040.91
2023-01-09T13:55:17.846Z,99055.59
2023-01-09T13:58:04.444Z,99051.31
2023-01-09T14:00:35.731Z,99062.06
2023-01-09T14:03:18.645Z,99056.00
2023-01-09T14:05:49.867Z,99066.00
2023-01-09T14:08:23.880Z,99060.81
2023-01-09T14:11:00.806Z,99061.22
2023-01-09T14:13:43.398Z,99068.09
2023-01-09T14:16:26.973Z,99053.41
2023-01-09T14:19:02.204Z,99084.78
2023-01-09T14:21:50.286Z,99067.53
2023-01-09T14:24:42.335Z,99066.00
2023-01-09T14:27:51.666Z,99085.00
2023-01-09T14:30:26.011Z,99092.94
2023-01-09T14:33:01.990Z,99087.00
2023-01-09T14:35:51.985Z,99099.19
2023-01-09T14:38:31.345Z,99099.44
2023-01-09T14:41:50.543Z,99108.97
2023-01-09T14:44:35.518Z,99119.66
2023-01-09T14:47:39.240Z,99123.19
2023-01-09T14:50:25.579Z,99126.84
2023-01-09T14:53:05.658Z,99132.19
2023-01-09T14:55:50.549Z,99135.88
2023-01-09T14:58:29.445Z,99144.88
2023-01-09T15:01:10.111Z,99149.47
2023-01-09T15:03:51.934Z,99146.88
2023-01-09T15:06:26.492Z,99148.66
2023-01-09T15:09:06.207Z,99156.59
2023-01-09T15:11:39.932Z,99144.38
2023-01-09T15:14:41.381Z,99142.84
2023-01-09T15:17:25.596Z,99149.00
2023-01-09T15:19:59.611Z,99161.97
2023-01-09T15:22:36.763Z,99154.94
2023-01-09T15:25:22.737Z,99162.91
2023-01-09T15:28:00.649Z,99150.03
2023-01-09T15:30:34.890Z,99169.19
2023-01-09T15:33:13.843Z,99171.03
2023-01-09T15:35:47.580Z,99162.28
2023-01-09T15:38:23.626Z,99172.88
2023-01-09T15:40:58.555Z,99169.53
2023-01-09T15:43:31.799Z,99176.53
2023-01-09T15:46:03.320Z,99146.28
2023-01-09T15:48:35.693Z,99170.53
2023-01-09T15:51:14.608Z,99166.09
2023-01-09T15:53:50.845Z,99181.91
2023-01-09T15:56:25.606Z,99185.44
2023-01-09T15:58:58.444Z,99185.63
2023-01-09T16:01:33.651Z,99177.16
2023-01-09T16:04:13.378Z,99192.81
2023-01-09T16:06:52.491Z,99205.19
2023-01-09T16:09:28.245Z,99213.16
2023-01-09T16:12:01.749Z,99217.56
2023-01-09T16:14:38.441Z,99207.38
2023-01-09T16:17:17.737Z,99205.66
2023-01-09T16:19:51.331Z,99207.47
2023-01-09T16:22:30.623Z,99236.13
2023-01-09T16:25:25.232Z,99236.84
2023-01-09T16:28:14.982Z,99245.69
2023-01-09T16:30:55.388Z,99249.28
2023-01-09T16:33:29.256Z,99238.13
2023-01-09T16:36:01.659Z,99233.72
2023-01-09T16:38:33.111Z,99254.50
2023-01-09T16:41:25.788Z,99252.00
2023-01-09T16:43:57.153Z,99258.97
2023-01-09T16:46:28.719Z,99264.19
2023-01-09T16:49:00.123Z,99280.06
2023-01-09T16:51:31.491Z,99270.41
2023-01-09T16:54:02.818Z,99278.34
2023-01-09T16:56:36.261Z,99269.72
2023-01-09T16:59:14.803Z,99282.78
2023-01-09T17:01:48.125Z,99290.63
2023-01-09T17:04:20.271Z,99298.50
2023-01-09T17:06:51.744Z,99279.44
2023-01-09T17:09:25.825Z,99291.66
2023-01-09T17:11:58.454Z,99308.19
2023-01-09T17:14:29.800Z,99297.91
2023-01-09T17:17:01.782Z,99317.88
2023-01-09T17:19:33.074Z,99320.56
2023-01-09T17:22:05.027Z,99300.63
2023-01-09T17:24:54.951Z,99305.09
2023-01-09T17:27:49.517Z,99333.03
2023-01-09T17:30:21.562Z,99329.53
2023-01-09T17:32:52.856Z,99335.75
2023-01-09T17:35:24.124Z,99342.75
2023-01-09T17:37:55.448Z,99343.66
2023-01-09T17:40:28.331Z,99339.38
2023-01-09T17:42:59.582Z,99334.34
2023-01-09T17:45:30.945Z,99341.28
2023-01-09T17:48:02.242Z,99367.50
2023-01-09T17:50:34.748Z,99358.09
2023-01-09T17:53:06.044Z,99370.97
2023-01-09T17:55:38.091Z,99375.34
2023-01-09T17:58:25.282Z,99382.38
2023-01-09T18:00:57.506Z,99382.31
2023-01-09T18:03:33.252Z,99388.50
2023-01-09T18:06:04.888Z,99399.81
2023-01-09T18:08:36.477Z,99384.28
2023-01-09T18:11:12.336Z,99406.00
2023-01-09T18:13:48.609Z,99393.13
2023-01-09T18:16:21.319Z,99419.31
2023-01-09T18:18:57.681Z,99422.22
2023-01-09T18:21:29.857Z,99418.91
2023-01-09T18:24:01.877Z,99426.06
2023-01-09T18:26:33.271Z,99423.56
2023-01-09T18:29:04.527Z,99430.44
2023-01-09T18:31:35.909Z,99440.91
2023-01-09T18:34:09.124Z,99433.22
2023-01-09T18:36:40.484Z,99454.97
2023-01-09T18:39:12.031Z,99441.03
2023-01-09T18:41:43.442Z,99434.88
2023-01-09T18:44:14.757Z,99431.41
2023-01-09T18:46:47.002Z,99470.56
2023-01-09T18:49:18.455Z,99462.75
2023-01-09T18:51:49.776Z,99482.75
2023-01-09T18:54:21.062Z,99457.63
2023-01-09T18:56:52.354Z,99502.88
2023-01-09T18:59:23.630Z,99501.06
2023-01-09T19:01:54.935Z,99492.44
2023-01-09T19:04:27.093Z,99470.88
2023-01-09T19:06:59.808Z,99513.44
2023-01-09T19:09:31.062Z,99523.13
2023-01-09T19:12:02.380Z,99522.25
2023-01-09T19:14:33.659Z,99536.41
2023-01-09T19:17:05.033Z,99550.44
2023-01-09T19:19:36.369Z,99557.41
2023-01-09T19:22:07.725Z,99557.38
2023-01-09T19:24:39.075Z,99540.91
2023-01-09T19:27:10.434Z,99557.38
2023-01-09T19:29:41.770Z,99543.34
2023-01-09T19:32:13.775Z,99564.31
2023-01-09T19:34:45.060Z,99575.66
2023-01-09T19:37:18.097Z,99572.28
2023-01-09T19:39:49.475Z,99581.81
2023-01-09T19:42:20.767Z,99573.28
2023-01-09T19:44:52.097Z,99581.09
2023-01-09T19:47:23.446Z,99580.22
2023-01-09T19:49:55.268Z,99569.09
2023-01-09T19:52:26.580Z,99594.31
2023-01-09T19:54:57.890Z,99592.63
2023-01-09T19:57:30.195Z,99573.47
2023-01-09T20:00:01.522Z,99582.25
2023-01-09T20:02:32.840Z,99603.84
2023-01-09T20:05:04.454Z,99611.66
2023-01-09T20:07:36.040Z,99603.13
2023-01-09T20:10:07.651Z,99620.47
2023-01-09T20:12:38.972Z,99640.66
2023-01-09T20:15:14.665Z,99634.50
2023-01-09T20:17:46.321Z,99631.09
2023-01-09T20:22:48.036Z,99655.50
2023-01-09T20:25:19.356Z,99651.97
2023-01-09T20:27:50.632Z,99645.00
2023-01-09T20:30:21.890Z,99664.22
2023-01-09T20:32:53.917Z,99642.50
2023-01-09T20:35:25.195Z,99673.75
2023-01-09T20:37:56.523Z,99677.31
2023-01-09T20:40:27.879Z,99679.03
2023-01-09T20:42:59.145Z,99664.31
2023-01-09T20:45:30.708Z,99675.66
2023-01-09T20:48:02.074Z,99679.19
2023-01-09T20:50:33.408Z,99699.22
2023-01-09T20:53:07.082Z,99704.47
2023-01-09T20:55:39.051Z,99712.44
2023-01-09T20:58:10.404Z,99701.16
2023-01-09T21:00:41.731Z,99717.72
2023-01-09T21:03:15.361Z,99720.44
2023-01-09T21:05:46.786Z,99695.41
2023-01-09T21:08:18.128Z,99730.22
2023-01-09T21:10:54.750Z,99732.81
2023-01-09T21:13:26.441Z,99719.69
2023-01-09T21:16:09.918Z,99714.41
2023-01-09T21:18:43.226Z,99738.88
2023-01-09T21:21:17.849Z,99747.69
2023-01-09T21:23:54.699Z,99738.03
2023-01-09T21:26:28.861Z,99743.28
2023-01-09T21:29:01.655Z,99743.28
2023-01-09T21:31:35.963Z,99759.03
2023-01-09T21:34:08.016Z,99759.06
2023-01-09T21:36:39.416Z,99774.03
2023-01-09T21:39:10.812Z,99758.41
2023-01-09T21:42:00.528Z,99780.25
2023-01-09T21:44:50.561Z,99782.06
2023-01-09T21:47:22.752Z,99767.31
2023-01-09T21:49:54.035Z,99796.09
2023-01-09T21:52:42.029Z,99801.31
2023-01-09T21:55:13.686Z,99797.09
2023-01-09T21:57:45.759Z,99767.56
2023-01-09T22:00:20.928Z,99813.69
2023-01-09T22:02:52.638Z,99826.09
2023-01-09T22:05:24.845Z,99833.09
2023-01-09T22:07:56.683Z,99825.19
2023-01-09T22:10:28.750Z,99835.75
2023-01-09T22:13:18.636Z,99831.44
2023-01-09T22:15:50.577Z,99836.81
2023-01-09T22:18:22.767Z,99837.75
2023-01-09T22:20:57.547Z,99840.41
2023-01-09T22:23:30.184Z,99846.59
2023-01-09T22:26:13.109Z,99821.44
2023-01-09T22:28:48.153Z,99847.69
2023-01-09T22:31:28.682Z,99866.03
2023-01-09T22:34:02.809Z,99841.66
2023-01-09T22:36:34.711Z,99858.28
2023-01-09T22:39:06.739Z,99835.69
2023-01-09T22:41:39.838Z,99889.66
2023-01-09T22:44:12.925Z,99894.03
2023-01-09T22:46:44.815Z,99896.69
2023-01-09T22:49:16.130Z,99903.75
2023-01-09T22:51:47.427Z,99899.38
2023-01-09T22:54:20.696Z,99901.28
2023-01-09T22:56:51.956Z,99914.31
2023-01-09T22:59:23.815Z,99898.66
2023-01-09T23:01:56.754Z,99920.44
2023-01-09T23:04:28.426Z,99932.75
2023-01-09T23:06:59.690Z,99928.41
2023-01-09T23:09:30.963Z,99935.38
2023-01-09T23:12:02.300Z,99938.91
2023-01-09T23:14:36.581Z,99937.16
2023-01-09T23:17:10.320Z,99946.81
2023-01-09T23:19:41.649Z,99932.91
2023-01-09T23:22:12.925Z,99952.94
2023-01-09T23:24:44.182Z,99960.00
2023-01-09T23:27:15.581Z,99965.44
2023-01-09T23:29:46.906Z,99975.91
2023-01-09T23:32:18.298Z,99982.88
2023-01-09T23:34:49.781Z,99997.78
2023-01-09T23:37:21.035Z,99988.19
2023-01-09T23:39:52.449Z,99993.34
2023-01-09T23:42:42.519Z,99990.00
2023-01-09T23:45:13.850Z,99998.75
2023-01-09T23:47:45.166Z,100011.00
2023-01-09T23:50:16.554Z,100013.66
2023-01-09T23:52:47.813Z,100017.22
2023-01-09T23:55:19.125Z,100016.28
2023-01-09T23:57:56.811Z,100010.28
